Time;durP1;ratioP1;P1;durP2;ratioP2;P2;SDS_P1;SDS_P2;PMS_P1;PMS_P2;Temp;Humidity;BMP_temperature;BMP_pressure;BME280_temperature;BME280_humidity;BME280_pressure;Samples;Min_cycle;Max_cycle;Signal;HPM_P1;HPM_P2
2021/11/30 00:00:12;;;;;;;5.93;3.22;;;;;;;3.60;100.00;100446.75;5068395;28;20033;-84
2021/11/30 00:02:38;;;;;;;4.90;2.67;;;;;;;3.60;100.00;100436.16;5048446;28;20051;-84
2021/11/30 00:05:06;;;;;;;7.75;2.90;;;;;;;3.62;100.00;100433.34;5062671;28;20556;-83
2021/11/30 00:07:31;;;;;;;7.43;3.20;;;;;;;3.65;100.00;100421.63;5069468;28;20119;-84
2021/11/30 00:12:25;;;;;;;6.20;2.63;;;;;;;3.70;100.00;100422.09;5067301;28;20447;-84
2021/11/30 00:14:53;;;;;;;4.70;2.40;;;;;;;3.70;100.00;100432.72;5051446;28;20041;-84
2021/11/30 00:17:20;;;;;;;7.43;2.22;;;;;;;3.71;100.00;100437.91;5050101;28;20032;-83
2021/11/30 00:19:48;;;;;;;5.45;1.70;;;;;;;3.70;100.00;100436.19;5049621;28;20052;-84
2021/11/30 00:22:19;;;;;;;7.60;2.40;;;;;;;3.74;100.00;100429.69;5064771;28;20041;-84
2021/11/30 00:24:45;;;;;;;6.75;2.25;;;;;;;3.76;100.00;100430.38;5067337;28;20315;-84
2021/11/30 00:27:17;;;;;;;8.13;2.03;;;;;;;3.78;100.00;100427.59;5043757;28;20546;-84
2021/11/30 00:29:53;;;;;;;5.20;2.13;;;;;;;3.78;100.00;100414.34;5061362;28;20040;-84
2021/11/30 00:32:19;;;;;;;6.57;1.83;;;;;;;3.78;100.00;100427.59;5065965;28;20036;-84
2021/11/30 00:34:47;;;;;;;6.30;2.13;;;;;;;3.75;100.00;100423.41;5050201;28;20519;-84
2021/11/30 00:37:12;;;;;;;8.00;2.88;;;;;;;3.77;100.00;100410.84;5062857;28;20477;-83
2021/11/30 00:39:38;;;;;;;10.02;2.75;;;;;;;3.75;100.00;100401.31;5063631;28;20046;-84
2021/11/30 00:42:03;;;;;;;7.70;3.10;;;;;;;3.76;100.00;100398.53;5061470;28;20515;-85
2021/11/30 00:44:35;;;;;;;8.75;3.03;;;;;;;3.72;100.00;100391.81;5062301;28;20559;-84
2021/11/30 00:47:01;;;;;;;7.15;2.80;;;;;;;3.71;100.00;100383.97;5062249;28;20044;-85
2021/11/30 00:49:27;;;;;;;5.22;3.15;;;;;;;3.70;100.00;100383.13;5060847;28;20053;-84
2021/11/30 00:51:57;;;;;;;5.75;3.10;;;;;;;3.73;100.00;100374.06;5034482;28;20041;-84
2021/11/30 00:54:33;;;;;;;10.02;3.15;;;;;;;3.71;100.00;100352.97;5065830;28;20560;-84
2021/11/30 00:57:02;;;;;;;8.95;3.60;;;;;;;3.70;100.00;100345.97;5047660;28;20124;-85
2021/11/30 00:59:28;;;;;;;10.93;3.45;;;;;;;3.69;100.00;100352.25;5045120;28;20091;-84
2021/11/30 01:01:56;;;;;;;9.98;4.20;;;;;;;3.71;100.00;100344.16;5050642;28;20040;-84
2021/11/30 01:04:21;;;;;;;9.15;4.57;;;;;;;3.72;100.00;100354.66;5048978;28;20139;-84
2021/11/30 01:06:55;;;;;;;10.85;4.88;;;;;;;3.71;100.00;100341.50;5066778;28;20045;-84
2021/11/30 01:09:24;;;;;;;9.13;4.78;;;;;;;3.71;100.00;100330.88;5058420;28;20033;-84
2021/11/30 01:11:51;;;;;;;8.43;5.80;;;;;;;3.68;100.00;100318.72;5048030;28;20047;-84
2021/11/30 01:14:19;;;;;;;15.70;8.25;;;;;;;3.68;100.00;100334.63;5063220;28;20032;-84
2021/11/30 01:16:46;;;;;;;13.90;7.82;;;;;;;3.68;100.00;100339.13;5064089;28;20055;-84
2021/11/30 01:19:13;;;;;;;13.27;7.38;;;;;;;3.66;100.00;100341.09;5047249;28;20040;-84
2021/11/30 01:21:38;;;;;;;12.43;8.60;;;;;;;3.67;100.00;100364.81;5048895;28;20503;-84
2021/11/30 01:24:05;;;;;;;28.35;8.60;;;;;;;3.65;100.00;100337.56;5060840;28;20120;-84
2021/11/30 01:26:37;;;;;;;17.00;8.40;;;;;;;3.63;100.00;100334.22;5065125;28;20727;-84
2021/11/30 01:29:09;;;;;;;15.05;7.57;;;;;;;3.62;100.00;100324.56;5066487;28;20055;-84
2021/11/30 01:31:37;;;;;;;15.68;8.98;;;;;;;3.61;100.00;100310.44;5069607;28;20103;-84
2021/11/30 01:34:03;;;;;;;10.82;7.22;;;;;;;3.60;100.00;100316.75;5067180;28;20068;-83
2021/11/30 01:36:29;;;;;;;13.73;8.18;;;;;;;3.59;100.00;100323.00;5067864;28;20178;-84
2021/11/30 01:38:55;;;;;;;15.05;8.25;;;;;;;3.62;100.00;100316.59;5033086;28;20044;-84
2021/11/30 01:41:22;;;;;;;13.90;8.23;;;;;;;3.59;100.00;100314.19;5048723;28;20036;-84
2021/11/30 01:43:51;;;;;;;15.20;7.82;;;;;;;3.57;100.00;100319.66;5043602;28;20067;-84
2021/11/30 01:51:32;;;;;;;15.15;7.53;;;;;;;3.48;100.00;100301.88;5060011;28;20040;-84
2021/11/30 01:54:00;;;;;;;15.13;8.02;;;;;;;3.48;100.00;100295.72;5034404;28;20045;-84
2021/11/30 01:56:25;;;;;;;14.63;7.65;;;;;;;3.43;100.00;100296.13;5062424;28;20071;-84
2021/11/30 01:58:52;;;;;;;15.10;6.95;;;;;;;3.37;100.00;100281.56;5033175;28;20095;-84
2021/11/30 02:01:26;;;;;;;18.25;6.80;;;;;;;3.31;100.00;100291.81;5063591;28;20036;-84
2021/11/30 02:03:53;;;;;;;13.95;6.93;;;;;;;3.28;100.00;100274.38;5062017;28;20147;-84
2021/11/30 02:06:30;;;;;;;15.18;7.20;;;;;;;3.19;100.00;100275.13;5044670;28;20040;-84
2021/11/30 02:08:56;;;;;;;17.17;7.68;;;;;;;3.10;100.00;100278.56;5067055;28;20046;-84
2021/11/30 02:11:28;;;;;;;16.52;7.47;;;;;;;3.10;100.00;100263.50;5048958;28;20408;-84
2021/11/30 02:13:55;;;;;;;13.88;8.05;;;;;;;3.05;100.00;100254.25;5079311;28;20064;-85
2021/11/30 02:16:22;;;;;;;22.55;8.35;;;;;;;3.01;100.00;100256.31;5050067;28;20036;-84
2021/11/30 02:18:52;;;;;;;18.77;8.93;;;;;;;2.96;100.00;100255.03;5062709;28;20132;-84
2021/11/30 02:21:22;;;;;;;18.33;10.05;;;;;;;2.92;100.00;100243.84;5048072;28;20115;-84
2021/11/30 02:26:21;;;;;;;18.90;8.95;;;;;;;2.83;100.00;100213.66;5064968;28;20032;-86
2021/11/30 02:28:56;;;;;;;17.35;8.85;;;;;;;2.74;100.00;100229.50;5047474;28;20044;-84
2021/11/30 02:31:28;;;;;;;17.88;10.13;;;;;;;2.74;100.00;100225.03;5048325;28;20038;-84
2021/11/30 02:33:55;;;;;;;21.85;10.32;;;;;;;2.69;100.00;100237.81;5048022;28;20036;-84
2021/11/30 02:36:31;;;;;;;17.38;8.52;;;;;;;2.66;100.00;100217.72;5066538;28;20024;-84
2021/11/30 02:38:59;;;;;;;20.38;11.27;;;;;;;2.65;100.00;100217.84;5066825;28;20090;-84
2021/11/30 02:41:32;;;;;;;20.52;12.20;;;;;;;2.62;100.00;100213.66;5044684;28;20040;-84
2021/11/30 02:43:58;;;;;;;21.75;12.05;;;;;;;2.54;100.00;100215.25;5031395;28;20493;-84
2021/11/30 02:46:40;;;;;;;22.30;12.98;;;;;;;2.52;100.00;100220.66;5048529;28;20051;-84
2021/11/30 02:49:09;;;;;;;20.58;13.45;;;;;;;2.43;100.00;100203.72;5049505;28;20138;-84
2021/11/30 02:51:36;;;;;;;18.27;13.23;;;;;;;2.39;100.00;100201.47;5051742;28;20040;-84
2021/11/30 02:54:10;;;;;;;16.75;12.13;;;;;;;2.33;100.00;100183.41;5066677;28;20064;-84
2021/11/30 02:56:53;;;;;;;21.58;15.73;;;;;;;2.35;100.00;100182.31;5030937;28;20392;-84
2021/11/30 02:59:38;;;;;;;26.05;13.50;;;;;;;2.31;100.00;100178.25;5032153;28;20045;-85
2021/11/30 03:02:16;;;;;;;19.80;14.57;;;;;;;2.28;100.00;100170.56;5065531;28;20029;-85
2021/11/30 03:04:46;;;;;;;20.80;13.65;;;;;;;2.22;100.00;100155.19;5026668;28;20186;-84
2021/11/30 03:07:16;;;;;;;23.33;16.33;;;;;;;2.26;100.00;100154.78;5045289;28;20128;-85
2021/11/30 03:09:44;;;;;;;20.83;13.60;;;;;;;2.22;100.00;100155.19;5046450;28;20045;-86
2021/11/30 03:12:10;;;;;;;22.10;14.95;;;;;;;2.20;100.00;100143.88;5061063;28;20049;-84
2021/11/30 03:14:44;;;;;;;24.92;14.85;;;;;;;2.17;100.00;100152.06;5023258;28;20063;-84
2021/11/30 03:17:12;;;;;;;23.08;16.13;;;;;;;2.20;100.00;100128.84;5040992;28;20086;-85
2021/11/30 03:19:39;;;;;;;24.55;13.85;;;;;;;2.15;100.00;100106.34;5049231;28;20536;-85
2021/11/30 03:22:09;;;;;;;24.52;19.25;;;;;;;2.21;100.00;100122.56;5046620;28;20115;-85
2021/11/30 03:24:35;;;;;;;25.98;18.80;;;;;;;2.18;100.00;100122.81;5048104;28;20082;-85
2021/11/30 03:27:01;;;;;;;21.30;16.67;;;;;;;2.19;100.00;100107.78;5029559;28;20045;-85
2021/11/30 03:29:28;;;;;;;24.02;16.38;;;;;;;2.18;100.00;100114.03;5065769;28;20037;-85
2021/11/30 03:34:39;;;;;;;23.38;16.42;;;;;;;2.20;100.00;100109.47;5057548;28;20048;-85
2021/11/30 03:37:09;;;;;;;22.77;13.15;;;;;;;2.20;100.00;100075.88;5063255;28;20043;-84
2021/11/30 03:39:36;;;;;;;28.60;20.30;;;;;;;2.25;100.00;100105.47;5040803;28;20128;-84
2021/11/30 03:42:04;;;;;;;24.42;19.60;;;;;;;2.22;100.00;100107.53;5066200;28;20128;-84
2021/11/30 03:44:31;;;;;;;24.25;17.58;;;;;;;2.24;100.00;100084.41;5037373;28;20054;-84
2021/11/30 03:47:09;;;;;;;26.75;20.58;;;;;;;2.26;100.00;100074.53;5060111;28;20103;-85
2021/11/30 03:49:35;;;;;;;23.63;17.90;;;;;;;2.26;100.00;100079.81;5047749;28;20468;-84
2021/11/30 03:52:00;;;;;;;28.42;19.33;;;;;;;2.28;100.00;100069.97;5064413;28;20156;-84
2021/11/30 03:54:25;;;;;;;25.95;19.70;;;;;;;2.25;100.00;100056.97;5064267;28;20128;-84
2021/11/30 03:56:52;;;;;;;26.25;19.73;;;;;;;2.29;100.00;100071.63;5069861;28;20032;-84
2021/11/30 03:59:23;;;;;;;27.63;19.55;;;;;;;2.31;100.00;100042.38;5050741;28;20547;-84
2021/11/30 04:01:49;;;;;;;26.73;18.13;;;;;;;2.32;100.00;100039.59;5069109;28;20117;-84
2021/11/30 04:04:24;;;;;;;34.65;25.02;;;;;;;2.35;100.00;100043.78;5050903;28;20588;-84
2021/11/30 04:06:55;;;;;;;32.17;21.60;;;;;;;2.39;100.00;100037.28;5051216;28;20047;-85
2021/11/30 04:09:22;;;;;;;30.67;21.67;;;;;;;2.43;100.00;100028.09;5060234;28;20123;-84
2021/11/30 04:11:53;;;;;;;33.58;26.25;;;;;;;2.48;100.00;100044.44;5051973;28;20043;-85
2021/11/30 04:14:19;;;;;;;27.73;19.77;;;;;;;2.51;100.00;100019.50;5046913;28;20108;-84
2021/11/30 04:16:46;;;;;;;34.95;25.08;;;;;;;2.54;100.00;100029.84;5049670;28;20109;-84
2021/11/30 04:19:12;;;;;;;32.83;21.92;;;;;;;2.61;100.00;100020.38;5061532;28;20056;-85
2021/11/30 04:21:40;;;;;;;36.80;24.98;;;;;;;2.66;100.00;100007.59;5067504;28;20040;-85
2021/11/30 04:24:06;;;;;;;37.83;25.25;;;;;;;2.68;100.00;100016.25;5048058;28;20048;-84
2021/11/30 04:26:33;;;;;;;34.33;21.80;;;;;;;2.71;100.00;100002.75;5068327;28;20130;-84
2021/11/30 04:29:04;;;;;;;37.92;28.67;;;;;;;2.77;100.00;100007.50;5050786;28;20043;-84
2021/11/30 04:31:31;;;;;;;39.40;24.65;;;;;;;2.79;100.00;99984.38;5060102;28;20823;-84
2021/11/30 04:33:58;;;;;;;36.92;21.10;;;;;;;2.85;100.00;99999.72;5051506;28;20036;-84
2021/11/30 04:36:24;;;;;;;38.95;29.42;;;;;;;2.91;100.00;99988.59;5051689;28;20037;-84
2021/11/30 04:38:56;;;;;;;37.92;26.63;;;;;;;2.94;100.00;99988.31;5068295;28;20032;-84
2021/11/30 04:41:27;;;;;;;36.15;24.90;;;;;;;3.01;100.00;99985.13;5056486;28;20037;-85
2021/11/30 04:43:55;;;;;;;34.00;21.42;;;;;;;3.06;100.00;99969.66;5060150;28;20397;-85
2021/11/30 04:46:25;;;;;;;39.17;26.63;;;;;;;3.12;100.00;99961.97;5034746;28;20171;-85
2021/11/30 04:49:06;;;;;;;35.30;25.67;;;;;;;3.21;100.00;99962.97;5045422;28;20044;-85
2021/11/30 04:51:35;;;;;;;35.58;23.85;;;;;;;3.27;100.00;99946.50;5049646;28;20048;-85
2021/11/30 04:54:01;;;;;;;37.13;27.10;;;;;;;3.34;100.00;99962.72;5029904;28;20035;-84
2021/11/30 04:56:27;;;;;;;37.70;27.88;;;;;;;3.41;100.00;99955.06;5059812;28;20094;-84
2021/11/30 04:58:52;;;;;;;37.72;26.00;;;;;;;3.47;100.00;99949.19;5064300;28;20045;-85
2021/11/30 05:01:19;;;;;;;40.42;25.90;;;;;;;3.51;100.00;99943.47;5069392;28;20051;-84
2021/11/30 05:03:44;;;;;;;34.92;24.02;;;;;;;3.56;100.00;99927.94;5048912;28;20060;-85
2021/11/30 05:06:11;;;;;;;38.03;27.35;;;;;;;3.60;100.00;99926.72;5049981;28;20514;-84
2021/11/30 05:08:46;;;;;;;34.10;22.63;;;;;;;3.65;100.00;99926.28;5035995;28;20047;-84
2021/11/30 05:11:15;;;;;;;36.38;26.73;;;;;;;3.70;100.00;99920.56;5058891;28;20120;-84
2021/11/30 05:13:43;;;;;;;38.65;28.38;;;;;;;3.74;100.00;99921.94;5057841;28;20048;-84
2021/11/30 05:16:08;;;;;;;36.83;24.17;;;;;;;3.80;100.00;99913.44;5050204;28;20502;-84
2021/11/30 05:18:34;;;;;;;34.13;21.88;;;;;;;3.85;100.00;99913.81;5061960;28;20029;-85
2021/11/30 05:20:59;;;;;;;30.90;20.95;;;;;;;3.90;100.00;99916.06;5037508;28;20063;-85
2021/11/30 05:23:29;;;;;;;31.70;21.38;;;;;;;3.94;100.00;99909.47;5047811;28;20048;-85
2021/11/30 05:25:59;;;;;;;31.05;20.90;;;;;;;3.98;100.00;99901.09;5064807;28;20033;-85
2021/11/30 05:28:26;;;;;;;34.45;22.33;;;;;;;4.01;100.00;99918.56;5045125;28;20044;-85
2021/11/30 05:30:52;;;;;;;30.58;18.35;;;;;;;4.06;100.00;99905.69;5047721;28;20135;-85
2021/11/30 05:33:17;;;;;;;33.97;21.60;;;;;;;4.09;100.00;99905.41;5040672;28;20174;-85
2021/11/30 05:35:43;;;;;;;24.85;16.15;;;;;;;4.12;100.00;99905.13;5050382;28;20041;-86
2021/11/30 05:38:08;;;;;;;32.45;23.73;;;;;;;4.15;100.00;99910.13;5051137;28;20056;-85
2021/11/30 05:40:34;;;;;;;31.88;23.63;;;;;;;4.20;100.00;99912.34;5050785;28;20052;-85
2021/11/30 05:43:00;;;;;;;31.05;20.45;;;;;;;4.22;100.00;99905.06;5063993;28;20048;-85
2021/11/30 05:45:25;;;;;;;29.90;18.77;;;;;;;4.26;100.00;99914.44;5047188;28;20064;-85
2021/11/30 05:47:51;;;;;;;31.13;20.13;;;;;;;4.30;100.00;99887.41;5047652;28;20053;-85
2021/11/30 05:50:17;;;;;;;31.88;21.17;;;;;;;4.33;100.00;99902.22;5065415;28;20036;-85
2021/11/30 05:52:43;;;;;;;28.00;16.67;;;;;;;4.37;100.00;99894.81;5041075;28;20036;-85
2021/11/30 05:55:09;;;;;;;30.48;20.27;;;;;;;4.41;100.00;99896.19;5066418;28;20037;-85
2021/11/30 05:57:37;;;;;;;29.85;21.60;;;;;;;4.44;100.00;99888.78;5053409;28;20044;-85
2021/11/30 06:00:05;;;;;;;28.60;17.70;;;;;;;4.48;100.00;99891.97;5068639;28;20036;-85
2021/11/30 06:02:31;;;;;;;31.85;22.38;;;;;;;4.49;100.00;99898.97;5062454;28;20037;-85
2021/11/30 06:04:57;;;;;;;25.95;15.50;;;;;;;4.54;100.00;99888.72;5050003;28;20539;-85
2021/11/30 06:07:22;;;;;;;26.20;18.05;;;;;;;4.57;100.00;99888.41;5048574;28;20131;-85
2021/11/30 06:09:48;;;;;;;25.50;15.70;;;;;;;4.59;100.00;99875.81;5045076;28;20048;-85
2021/11/30 06:12:13;;;;;;;24.98;16.80;;;;;;;4.62;100.00;99886.16;5045003;28;20450;-85
2021/11/30 06:14:39;;;;;;;23.75;17.15;;;;;;;4.65;100.00;99880.53;5052721;28;20040;-85
2021/11/30 06:17:06;;;;;;;25.95;17.38;;;;;;;4.71;100.00;99892.41;5053924;28;20060;-85
2021/11/30 06:19:34;;;;;;;23.30;15.07;;;;;;;4.71;100.00;99874.63;5050810;28;20044;-85
2021/11/30 06:21:59;;;;;;;24.05;14.93;;;;;;;4.78;100.00;99882.03;5035028;28;20488;-85
2021/11/30 06:24:25;;;;;;;24.50;17.10;;;;;;;4.79;100.00;99889.84;5067541;28;20076;-85
2021/11/30 06:26:50;;;;;;;21.40;13.38;;;;;;;4.82;100.00;99872.78;5033564;28;20052;-85
2021/11/30 06:29:16;;;;;;;22.33;14.80;;;;;;;4.84;100.00;99862.81;5049515;28;20105;-85
2021/11/30 06:31:42;;;;;;;21.58;13.75;;;;;;;4.87;100.00;99876.66;5068305;28;20048;-84
2021/11/30 06:34:07;;;;;;;18.40;11.30;;;;;;;4.91;100.00;99874.53;5050817;28;20060;-85
2021/11/30 06:36:32;;;;;;;16.67;9.40;;;;;;;4.92;100.00;99876.19;5066868;28;20049;-85
2021/11/30 06:38:58;;;;;;;21.13;13.77;;;;;;;4.93;100.00;99870.72;5031515;28;20041;-85
2021/11/30 06:41:24;;;;;;;20.15;13.65;;;;;;;4.98;100.00;99872.94;5034244;28;20040;-85
2021/11/30 06:43:49;;;;;;;21.02;13.50;;;;;;;5.03;100.00;99856.53;5028044;28;20327;-85
2021/11/30 06:46:15;;;;;;;19.15;11.75;;;;;;;5.06;100.00;99873.00;5044306;28;20082;-85
2021/11/30 06:48:40;;;;;;;19.85;12.82;;;;;;;5.08;100.00;99846.28;5067079;28;20047;-87
2021/11/30 06:51:05;;;;;;;17.10;10.90;;;;;;;5.10;100.00;99858.44;5044876;28;20064;-87
2021/11/30 06:53:33;;;;;;;18.50;10.25;;;;;;;5.13;100.00;99857.28;5051256;28;20051;-87
2021/11/30 06:55:59;;;;;;;20.27;12.55;;;;;;;5.15;100.00;99850.84;5031784;28;20423;-86
2021/11/30 06:58:24;;;;;;;19.25;12.30;;;;;;;5.19;100.00;99856.69;5048244;28;20033;-88
2021/11/30 07:00:52;;;;;;;19.83;11.50;;;;;;;5.22;100.00;99852.88;5033811;28;20054;-86
2021/11/30 07:03:21;;;;;;;18.88;11.55;;;;;;;5.23;100.00;99852.72;5046395;28;20138;-87
2021/11/30 07:05:50;;;;;;;20.35;12.82;;;;;;;5.25;100.00;99839.28;5050604;28;20063;-87
2021/11/30 07:08:19;;;;;;;;;;;;;;;5.28;100.00;99838.97;5032728;28;20178;-87
2021/11/30 07:11:03;;;;;;;18.63;12.10;;;;;;;5.24;100.00;99832.31;5051746;28;20557;-87
2021/11/30 07:13:33;;;;;;;20.77;12.55;;;;;;;5.27;100.00;99832.00;5032973;28;20048;-86
2021/11/30 07:16:01;;;;;;;18.73;10.85;;;;;;;5.33;100.00;99860.63;5050853;28;20036;-87
2021/11/30 07:18:28;;;;;;;19.00;12.00;;;;;;;5.37;100.00;99869.97;5049856;28;20086;-86
2021/11/30 07:20:55;;;;;;;20.35;10.65;;;;;;;5.39;100.00;99868.00;5050823;28;20119;-86
2021/11/30 07:23:21;;;;;;;19.45;11.18;;;;;;;5.43;100.00;99858.72;5049750;28;20489;-87
2021/11/30 07:25:51;;;;;;;22.50;13.75;;;;;;;5.46;100.00;99869.03;5067774;28;20051;-87
2021/11/30 07:28:17;;;;;;;20.98;14.00;;;;;;;5.49;100.00;99887.38;5053854;28;20043;-87
2021/11/30 07:30:45;;;;;;;21.13;11.85;;;;;;;5.54;100.00;99865.63;5051203;28;20045;-87
2021/11/30 07:33:10;;;;;;;22.73;13.57;;;;;;;5.56;100.00;99868.97;5032515;28;20118;-87
2021/11/30 07:35:36;;;;;;;19.25;11.52;;;;;;;5.60;100.00;99871.16;5031604;28;20440;-87
2021/11/30 07:38:02;;;;;;;20.65;13.30;;;;;;;5.62;100.00;99863.88;5033052;28;20141;-87
2021/11/30 07:40:27;;;;;;;21.30;12.50;;;;;;;5.68;100.00;99872.22;5064490;28;20512;-87
2021/11/30 07:42:53;;;;;;;21.42;12.45;;;;;;;5.72;100.00;99862.94;5048512;28;20457;-86
2021/11/30 07:45:18;;;;;;;19.38;10.23;;;;;;;5.75;100.00;99865.28;5044926;28;20392;-86
2021/11/30 07:47:45;;;;;;;20.85;11.77;;;;;;;5.79;100.00;99887.94;5049591;28;20127;-86
2021/11/30 07:50:11;;;;;;;21.88;12.93;;;;;;;5.81;100.00;99880.63;5057848;28;20044;-86
2021/11/30 07:52:40;;;;;;;20.02;12.10;;;;;;;5.85;100.00;99877.50;5047813;28;20101;-87
2021/11/30 07:55:08;;;;;;;20.02;11.75;;;;;;;5.88;100.00;99871.03;5047396;28;20485;-87
2021/11/30 07:57:34;;;;;;;18.25;10.05;;;;;;;5.91;100.00;99873.38;5029333;28;20044;-87
2021/11/30 08:00:00;;;;;;;18.35;11.57;;;;;;;5.95;100.00;99874.75;5030019;28;20485;-87
2021/11/30 08:02:25;;;;;;;16.08;9.23;;;;;;;5.96;100.00;99860.47;5045714;28;20044;-87
2021/11/30 08:04:51;;;;;;;15.68;7.40;;;;;;;6.04;100.00;99857.00;5048810;28;20045;-87
2021/11/30 08:07:18;;;;;;;18.60;10.43;;;;;;;6.06;100.00;99855.03;5047555;28;20032;-87
2021/11/30 08:09:48;;;;;;;21.80;11.80;;;;;;;6.09;100.00;99860.88;5048474;28;20478;-87
2021/11/30 08:12:16;;;;;;;20.95;10.77;;;;;;;6.14;100.00;99862.25;5037633;28;20041;-86
2021/11/30 08:14:43;;;;;;;17.63;9.27;;;;;;;6.17;100.00;99867.25;5062176;28;20047;-86
2021/11/30 08:17:15;;;;;;;18.25;10.23;;;;;;;6.21;100.00;99863.25;5049316;28;20039;-87
2021/11/30 08:19:42;;;;;;;18.65;11.40;;;;;;;6.24;100.00;99863.81;5046107;28;20102;-87
2021/11/30 08:22:10;;;;;;;16.88;9.35;;;;;;;6.27;100.00;99878.59;5034143;28;20048;-86
2021/11/30 08:24:36;;;;;;;18.70;9.45;;;;;;;6.29;100.00;99858.81;5050049;28;20044;-86
2021/11/30 08:27:06;;;;;;;18.35;10.63;;;;;;;6.33;100.00;99864.66;5049012;28;20904;-87
2021/11/30 08:29:34;;;;;;;20.70;10.45;;;;;;;6.36;100.00;99861.69;5045829;28;20095;-87
2021/11/30 08:32:01;;;;;;;19.27;10.63;;;;;;;6.41;100.00;99866.53;5034137;28;20028;-87
2021/11/30 08:34:27;;;;;;;17.85;9.07;;;;;;;6.41;100.00;99854.03;5033781;28;20045;-87
2021/11/30 08:36:53;;;;;;;21.35;12.48;;;;;;;6.45;100.00;99868.72;5047244;28;20044;-87
2021/11/30 08:39:19;;;;;;;23.90;9.55;;;;;;;6.48;100.00;99876.38;5046977;28;20508;-87
2021/11/30 08:41:45;;;;;;;19.02;9.95;;;;;;;6.52;100.00;99875.06;5064511;28;20033;-87
2021/11/30 08:44:12;;;;;;;22.23;11.93;;;;;;;6.51;100.00;99878.72;5058890;28;20625;-87
2021/11/30 08:46:37;;;;;;;22.20;12.23;;;;;;;6.52;100.00;99891.06;5045565;28;21075;-86
2021/11/30 08:49:03;;;;;;;27.02;14.63;;;;;;;6.51;100.00;99892.06;5062883;28;20453;-87
2021/11/30 08:51:29;;;;;;;24.25;14.18;;;;;;;6.53;100.00;99895.41;5045459;28;20036;-87
2021/11/30 08:53:56;;;;;;;24.35;13.35;;;;;;;6.61;100.00;99901.75;5029431;28;20036;-87
2021/11/30 08:56:22;;;;;;;24.63;13.73;;;;;;;6.64;100.00;99904.09;5040146;28;20060;-86
2021/11/30 08:58:51;;;;;;;25.67;13.23;;;;;;;6.71;100.00;99889.97;5035021;28;20041;-87
2021/11/30 09:01:17;;;;;;;20.20;11.20;;;;;;;6.76;100.00;99889.47;5015177;28;20086;-87
2021/11/30 09:03:45;;;;;;;20.27;9.80;;;;;;;6.80;100.00;99880.16;5060739;28;20040;-86
2021/11/30 09:06:11;;;;;;;22.33;11.93;;;;;;;6.81;100.00;99892.50;5043384;28;20044;-87
2021/11/30 09:08:36;;;;;;;23.48;10.77;;;;;;;6.86;100.00;99884.03;5041854;28;20456;-87
2021/11/30 09:11:02;;;;;;;19.90;11.52;;;;;;;6.89;100.00;99887.19;5046006;28;20043;-87
2021/11/30 09:13:27;;;;;;;16.98;8.75;;;;;;;6.94;100.00;99879.53;5031567;28;20040;-87
2021/11/30 09:15:54;;;;;;;22.40;10.07;;;;;;;7.01;100.00;99882.38;5029739;28;20051;-86
2021/11/30 09:18:20;;;;;;;14.27;6.68;;;;;;;7.05;100.00;99878.41;5074905;28;20477;-87
2021/11/30 09:20:46;;;;;;;9.77;6.18;;;;;;;7.12;100.00;99875.91;5030505;28;20036;-87
2021/11/30 09:23:15;;;;;;;11.40;5.93;;;;;;;7.16;100.00;99883.44;5042811;28;20048;-87
2021/11/30 09:25:42;;;;;;;8.50;4.32;;;;;;;7.24;100.00;99894.09;5044248;28;20045;-87
2021/11/30 09:28:07;;;;;;;10.40;4.90;;;;;;;7.27;100.00;99895.59;5059002;28;20055;-87
2021/11/30 09:30:35;;;;;;;9.05;5.07;;;;;;;7.31;100.00;99906.78;5043831;28;20842;-87
2021/11/30 09:33:01;;;;;;;9.73;4.97;;;;;;;7.30;100.00;99903.28;5065136;28;20043;-87
2021/11/30 09:35:33;;;;;;;7.90;4.93;;;;;;;7.32;100.00;99906.63;5046480;28;20049;-87
2021/11/30 09:37:59;;;;;;;7.70;4.07;;;;;;;7.36;100.00;99901.78;5047574;28;20095;-87
2021/11/30 09:40:29;;;;;;;8.43;3.45;;;;;;;7.38;100.00;99910.47;5048259;28;20036;-87
2021/11/30 09:42:55;;;;;;;;;;;;;;;7.33;100.00;99912.78;5045180;28;20037;-87
2021/11/30 09:45:24;;;;;;;6.93;3.72;;;;;;;7.26;100.00;99925.97;5058021;28;19923;-87
2021/11/30 09:47:50;;;;;;;;;;;;;;;7.25;100.00;99929.66;5048359;28;20401;-86
2021/11/30 09:50:19;;;;;;;6.22;2.33;;;;;;;7.19;100.00;99924.94;5047543;28;19920;-87
2021/11/30 09:52:46;;;;;;;6.70;2.42;;;;;;;7.18;100.00;99928.63;5043148;28;20128;-86
2021/11/30 09:55:14;;;;;;;7.25;1.95;;;;;;;7.20;100.00;99931.97;5044773;28;20032;-87
2021/11/30 09:57:41;;;;;;;5.93;1.77;;;;;;;7.19;100.00;99943.63;5023652;28;20695;-87
2021/11/30 10:00:09;;;;;;;9.27;2.17;;;;;;;7.17;100.00;99925.13;5040841;28;20043;-86
2021/11/30 10:02:35;;;;;;;7.00;1.75;;;;;;;7.17;100.00;99937.63;5028980;28;20503;-87
2021/11/30 10:05:01;;;;;;;5.97;1.60;;;;;;;7.18;100.00;99947.28;5030820;28;20041;-87
2021/11/30 10:07:40;;;;;;;6.68;1.48;;;;;;;7.14;100.00;99959.31;5027879;28;20040;-87
2021/11/30 10:10:21;;;;;;;7.63;1.58;;;;;;;7.12;100.00;99947.94;5047946;28;20052;-87
2021/11/30 10:13:11;;;;;;;6.22;1.60;;;;;;;7.08;100.00;99951.91;5043359;28;20489;-86
2021/11/30 10:15:46;;;;;;;10.13;1.50;;;;;;;7.04;100.00;99939.91;5058955;28;20466;-86
2021/11/30 10:18:25;;;;;;;7.88;1.58;;;;;;;7.01;100.00;99947.25;5058169;28;20605;-87
2021/11/30 10:21:02;;;;;;;6.57;0.90;;;;;;;7.01;100.00;99941.06;5059349;28;20040;-87
2021/11/30 10:24:02;;;;;;;9.20;1.65;;;;;;;6.98;100.00;99947.56;5059246;28;20040;-87
2021/11/30 10:26:35;;;;;;;7.80;1.73;;;;;;;7.00;100.00;99944.75;5027936;28;20101;-87
2021/11/30 10:29:06;;;;;;;6.32;1.30;;;;;;;6.99;100.00;99943.06;5046249;28;20119;-86
2021/11/30 10:31:36;;;;;;;8.35;1.85;;;;;;;6.99;100.00;99959.94;5043691;28;20409;-87
2021/11/30 10:34:19;;;;;;;8.82;1.52;;;;;;;7.02;100.00;99942.75;5059890;28;20037;-87
2021/11/30 10:36:49;;;;;;;7.43;1.40;;;;;;;7.01;100.00;99936.56;5043088;28;20043;-87
2021/11/30 10:39:23;;;;;;;9.32;1.60;;;;;;;7.02;100.00;99929.44;5060691;28;20098;-87
2021/11/30 10:41:51;;;;;;;8.05;1.35;;;;;;;7.03;100.00;99933.75;5040411;28;20118;-86
2021/11/30 10:44:29;;;;;;;9.98;2.15;;;;;;;7.05;100.00;99944.25;5046007;28;20040;-87
2021/11/30 10:47:17;;;;;;;11.77;1.77;;;;;;;7.06;100.00;99937.94;5026726;28;20040;-87
2021/11/30 10:49:51;;;;;;;7.30;1.25;;;;;;;7.08;100.00;99943.91;5061200;28;20453;-87
2021/11/30 10:52:22;;;;;;;7.93;1.55;;;;;;;7.11;100.00;99940.97;5056770;28;20397;-87
2021/11/30 10:55:02;;;;;;;6.82;1.30;;;;;;;7.14;100.00;99946.78;5042635;28;20075;-88
2021/11/30 10:57:29;;;;;;;8.98;2.47;;;;;;;7.18;100.00;99941.97;5062401;28;20032;-87
2021/11/30 11:00:15;;;;;;;8.85;2.25;;;;;;;7.21;100.00;99954.97;5058646;28;20390;-87
2021/11/30 11:03:01;;;;;;;9.18;2.75;;;;;;;7.22;100.00;99949.50;5024817;28;20539;-87
2021/11/30 11:05:49;;;;;;;8.35;1.42;;;;;;;7.23;100.00;99948.47;5012246;28;20468;-87
2021/11/30 11:08:19;;;;;;;9.45;1.80;;;;;;;7.24;100.00;99963.47;5044319;28;20373;-87
2021/11/30 11:10:48;;;;;;;8.50;1.50;;;;;;;7.29;100.00;99954.16;5043116;28;20044;-87
2021/11/30 11:13:31;;;;;;;10.32;1.85;;;;;;;7.30;100.00;99948.66;5058400;28;20037;-87
2021/11/30 11:16:05;;;;;;;10.57;2.28;;;;;;;7.33;100.00;99959.00;5043600;28;20044;-87
2021/11/30 11:18:33;;;;;;;7.53;1.88;;;;;;;7.37;100.00;99963.03;5027506;28;20134;-87
2021/11/30 11:21:33;;;;;;;10.27;1.70;;;;;;;7.39;100.00;99958.38;5043798;28;20161;-86
2021/11/30 11:23:58;;;;;;;9.85;1.88;;;;;;;7.39;100.00;99958.38;5043539;28;20054;-86
2021/11/30 11:26:28;;;;;;;9.25;1.50;;;;;;;7.42;100.00;99963.38;5045316;28;20041;-86
2021/11/30 11:28:56;;;;;;;14.48;2.00;;;;;;;7.45;100.00;99960.38;5061201;28;20052;-87
2021/11/30 11:31:25;;;;;;;8.00;1.73;;;;;;;7.45;100.00;99963.06;5044868;28;20036;-87
2021/11/30 11:33:51;;;;;;;7.47;1.87;;;;;;;7.46;100.00;99961.22;5043935;28;20040;-87
2021/11/30 11:36:18;;;;;;;7.75;1.50;;;;;;;7.47;100.00;99971.72;5057622;28;20371;-87
2021/11/30 11:38:46;;;;;;;5.55;1.85;;;;;;;7.49;100.00;99978.75;5057945;28;20428;-87
2021/11/30 11:41:13;;;;;;;9.48;1.67;;;;;;;7.50;100.00;99983.06;5055567;28;20051;-87